createdAt,value
2023-04-10T00:00:57.665Z,79.93
2023-04-10T00:02:39.680Z,79.81
2023-04-10T00:04:01.922Z,79.92
2023-04-10T00:05:45.220Z,80.06
2023-04-10T00:07:18.679Z,79.92
2023-04-10T00:09:03.559Z,80.06
2023-04-10T00:10:36.983Z,79.90
2023-04-10T00:11:59.024Z,79.87
2023-04-10T00:13:30.296Z,80.06
2023-04-10T00:15:16.177Z,80.11
2023-04-10T00:16:49.691Z,80.24
2023-04-10T00:18:21.327Z,80.26
2023-04-10T00:20:06.343Z,80.67
2023-04-10T00:21:54.489Z,80.60
2023-04-10T00:23:47.708Z,80.59
2023-04-10T00:25:40.657Z,80.81
2023-04-10T00:27:33.993Z,80.77
2023-04-10T00:29:14.329Z,80.91
2023-04-10T00:30:59.517Z,81.14
2023-04-10T00:32:54.244Z,81.02
2023-04-10T00:34:49.211Z,81.33
2023-04-10T00:36:43.214Z,81.41
2023-04-10T00:38:28.318Z,81.47
2023-04-10T00:40:23.265Z,81.54
2023-04-10T00:42:09.407Z,81.62
2023-04-10T00:43:50.405Z,81.84
2023-04-10T00:45:45.236Z,81.66
2023-04-10T00:47:39.218Z,81.98
2023-04-10T00:49:34.225Z,81.80
2023-04-10T00:51:29.233Z,81.50
2023-04-10T00:53:14.170Z,81.97
2023-04-10T00:54:47.709Z,81.93
2023-04-10T00:56:40.751Z,81.80
2023-04-10T00:58:14.252Z,82.02
2023-04-10T00:59:59.347Z,81.83
2023-04-10T01:04:02.965Z,82.08
2023-04-10T01:05:43.756Z,82.11
2023-04-10T01:07:12.899Z,82.22
2023-04-10T01:08:49.670Z,82.27
2023-04-10T01:10:13.878Z,81.81
2023-04-10T01:11:54.157Z,82.00
2023-04-10T01:13:45.218Z,81.88
2023-04-10T01:15:16.582Z,81.95
2023-04-10T01:16:53.097Z,82.16
2023-04-10T01:18:40.689Z,81.90
2023-04-10T01:20:30.321Z,81.98
2023-04-10T01:22:15.756Z,81.78
2023-04-10T01:24:01.574Z,81.95
2023-04-10T01:25:46.705Z,82.24
2023-04-10T01:27:40.358Z,81.87
2023-04-10T01:29:29.555Z,82.02
2023-04-10T01:31:10.134Z,81.97
2023-04-10T01:32:55.772Z,81.96
2023-04-10T01:34:51.269Z,82.04
2023-04-10T01:36:46.251Z,81.98
2023-04-10T01:38:31.208Z,82.14
2023-04-10T01:40:15.991Z,82.02
2023-04-10T01:41:59.242Z,81.92
2023-04-10T01:44:02.221Z,82.09
2023-04-10T01:45:57.370Z,82.25
2023-04-10T01:47:38.793Z,82.48
2023-04-10T01:49:12.156Z,82.55
2023-04-10T01:50:46.041Z,82.61
2023-04-10T01:52:19.560Z,82.56
2023-04-10T01:54:08.267Z,82.56
2023-04-10T01:55:53.649Z,82.62
2023-04-10T01:57:40.646Z,82.56
2023-04-10T01:59:13.866Z,82.69
2023-04-10T02:00:55.771Z,82.71
2023-04-10T02:02:40.979Z,82.77
2023-04-10T02:04:30.182Z,82.75
2023-04-10T02:06:15.026Z,82.69
2023-04-10T02:08:00.272Z,82.73
2023-04-10T02:09:36.134Z,82.72
2023-04-10T02:11:21.315Z,82.83
2023-04-10T02:12:56.569Z,82.70
2023-04-10T02:14:30.094Z,82.78
2023-04-10T02:16:07.776Z,82.89
2023-04-10T02:17:43.638Z,82.76
2023-04-10T02:19:19.480Z,82.89
2023-04-10T02:21:00.316Z,83.00
2023-04-10T02:22:25.686Z,82.92
2023-04-10T02:24:10.749Z,83.06
2023-04-10T02:25:56.561Z,83.28
2023-04-10T02:27:20.574Z,83.02
2023-04-10T02:28:53.999Z,83.00
2023-04-10T02:30:39.405Z,82.78
2023-04-10T02:32:34.273Z,82.75
2023-04-10T02:34:19.097Z,82.72
2023-04-10T02:36:05.356Z,82.81
2023-04-10T02:38:00.226Z,82.90
2023-04-10T02:39:54.216Z,82.79
2023-04-10T02:41:39.730Z,82.47
2023-04-10T02:43:24.990Z,82.62
2023-04-10T02:44:49.956Z,82.49
2023-04-10T02:46:26.118Z,82.61
2023-04-10T02:48:10.941Z,82.59
2023-04-10T02:49:57.090Z,82.59
2023-04-10T02:51:50.785Z,82.79
2023-04-10T02:53:36.254Z,82.66
2023-04-10T02:55:11.815Z,82.97
2023-04-10T02:56:55.037Z,83.08
2023-04-10T02:58:30.542Z,83.20
2023-04-10T03:00:06.630Z,83.28
2023-04-10T03:01:51.469Z,83.15
2023-04-10T03:03:16.491Z,83.04
2023-04-10T03:05:08.328Z,83.39
2023-04-10T03:06:44.163Z,83.51
2023-04-10T03:08:38.548Z,83.27
2023-04-10T03:10:14.221Z,83.29
2023-04-10T03:11:47.702Z,83.26
2023-04-10T03:13:23.280Z,83.37
2023-04-10T03:15:08.244Z,83.22
2023-04-10T03:16:50.953Z,83.27
2023-04-10T03:20:55.268Z,83.04
2023-04-10T03:22:48.868Z,83.11
2023-04-10T03:24:29.838Z,83.25
2023-04-10T03:26:05.941Z,83.35
2023-04-10T03:27:39.132Z,83.12
2023-04-10T03:29:19.919Z,83.24
2023-04-10T03:31:04.741Z,83.23
2023-04-10T03:33:01.040Z,82.97
2023-04-10T03:34:37.139Z,83.02
2023-04-10T03:36:31.171Z,82.85
2023-04-10T03:38:16.551Z,82.78
2023-04-10T03:39:41.713Z,82.72
2023-04-10T03:41:15.413Z,82.63
2023-04-10T03:43:00.697Z,82.52
2023-04-10T03:44:47.532Z,82.62
2023-04-10T03:46:32.804Z,82.48
2023-04-10T03:48:06.958Z,82.55
2023-04-10T03:49:54.636Z,82.80
2023-04-10T03:51:44.323Z,82.59
2023-04-10T03:53:32.922Z,82.56
2023-04-10T03:55:19.621Z,82.66
2023-04-10T03:57:02.212Z,82.48
2023-04-10T03:58:24.049Z,82.54
2023-04-10T04:00:09.233Z,82.59
2023-04-10T04:01:43.048Z,82.86
2023-04-10T04:03:28.120Z,82.49
2023-04-10T04:05:30.822Z,82.46
2023-04-10T04:07:51.470Z,82.72
2023-04-10T04:09:42.313Z,82.75
2023-04-10T04:11:45.338Z,82.94
2023-04-10T04:13:37.402Z,82.99
2023-04-10T04:15:49.973Z,82.94
2023-04-10T04:17:31.642Z,82.81
2023-04-10T04:19:20.963Z,82.91
2023-04-10T04:21:27.334Z,82.84
2023-04-10T04:23:21.095Z,82.87
2023-04-10T04:25:26.466Z,82.88
2023-04-10T04:27:31.000Z,83.26
2023-04-10T04:29:29.229Z,82.95
2023-04-10T04:31:51.025Z,83.36
2023-04-10T04:33:51.612Z,83.40
2023-04-10T04:35:32.577Z,83.20
2023-04-10T04:37:44.184Z,83.10
2023-04-10T04:39:27.615Z,82.87
2023-04-10T04:41:21.576Z,82.86
2023-04-10T04:43:36.965Z,82.72
2023-04-10T04:45:24.795Z,82.84
2023-04-10T04:47:20.253Z,83.11
2023-04-10T04:48:53.604Z,83.04
2023-04-10T04:50:48.092Z,82.93
2023-04-10T04:52:49.395Z,82.75
2023-04-10T04:54:23.568Z,82.65
2023-04-10T04:56:32.296Z,82.64
2023-04-10T04:58:20.448Z,82.77
2023-04-10T05:00:00.894Z,82.74
2023-04-10T05:02:03.502Z,82.56
2023-04-10T05:04:01.567Z,82.26
2023-04-10T05:06:11.117Z,82.36
2023-04-10T05:07:52.841Z,82.01
2023-04-10T05:09:45.381Z,81.89
2023-04-10T05:11:25.786Z,81.87
2023-04-10T05:13:25.663Z,82.18
2023-04-10T05:15:10.037Z,82.34
2023-04-10T05:16:39.619Z,82.07
2023-04-10T05:18:57.292Z,81.86
2023-04-10T05:21:10.949Z,82.14
2023-04-10T05:22:53.412Z,82.28
2023-04-10T05:24:55.149Z,82.07
2023-04-10T05:26:48.046Z,81.96
2023-04-10T05:28:48.414Z,82.11
2023-04-10T05:30:46.238Z,82.02
2023-04-10T05:32:54.844Z,82.18
2023-04-10T05:34:30.997Z,82.02
2023-04-10T05:36:06.182Z,81.89
2023-04-10T05:37:49.746Z,81.58
2023-04-10T05:40:13.705Z,81.25
2023-04-10T05:42:00.122Z,81.37
2023-04-10T05:43:55.675Z,81.78
2023-04-10T05:46:24.836Z,81.38
2023-04-10T05:48:33.958Z,81.56
2023-04-10T05:50:24.159Z,81.62
2023-04-10T05:51:54.189Z,81.60
2023-04-10T05:53:39.073Z,81.77
2023-04-10T05:55:40.016Z,81.79
2023-04-10T05:58:00.167Z,81.72
2023-04-10T06:00:05.739Z,81.47
2023-04-10T06:01:39.001Z,81.67
2023-04-10T06:03:24.544Z,81.78
2023-04-10T06:05:01.843Z,81.41
2023-04-10T06:06:37.617Z,81.61
2023-04-10T06:08:22.791Z,81.38
2023-04-10T06:10:03.375Z,81.30
2023-04-10T06:11:39.576Z,81.07
2023-04-10T06:13:24.686Z,81.28
2023-04-10T06:15:02.569Z,81.00
2023-04-10T06:16:39.798Z,80.80
2023-04-10T06:18:24.742Z,81.14
2023-04-10T06:20:10.006Z,81.24
2023-04-10T06:21:46.759Z,81.08
2023-04-10T06:23:31.799Z,81.13
2023-04-10T06:25:01.101Z,81.05
2023-04-10T06:26:46.610Z,80.87
2023-04-10T06:28:27.482Z,80.92
2023-04-10T06:29:58.511Z,80.84
2023-04-10T06:31:31.970Z,81.26
2023-04-10T06:33:01.075Z,81.68
2023-04-10T06:34:35.400Z,80.84
2023-04-10T06:36:22.281Z,80.51
2023-04-10T06:38:02.364Z,79.45
2023-04-10T06:39:43.739Z,79.19
2023-04-10T06:41:17.553Z,79.37
2023-04-10T06:42:53.281Z,79.65
2023-04-10T06:44:34.727Z,79.11
2023-04-10T06:46:19.893Z,78.98
2023-04-10T06:47:55.317Z,78.97
2023-04-10T06:49:39.142Z,78.77
2023-04-10T06:51:03.551Z,78.37
2023-04-10T06:52:58.301Z,78.65
2023-04-10T06:54:40.432Z,78.64
2023-04-10T06:56:16.303Z,78.72
2023-04-10T06:58:01.818Z,78.89
2023-04-10T06:59:35.727Z,78.66
2023-04-10T07:01:09.249Z,78.77
2023-04-10T07:02:45.964Z,78.72
2023-04-10T07:04:31.094Z,78.66
2023-04-10T07:06:12.102Z,78.73
2023-04-10T07:07:52.959Z,79.01
2023-04-10T07:09:29.294Z,79.04
2023-04-10T07:11:01.291Z,78.86
2023-04-10T07:12:43.307Z,78.29
2023-04-10T07:14:24.337Z,78.11
2023-04-10T07:15:57.703Z,78.39
2023-04-10T07:17:31.266Z,78.46
2023-04-10T07:19:11.946Z,78.72
2023-04-10T07:20:52.437Z,78.75
2023-04-10T07:22:26.448Z,78.40
2023-04-10T07:23:57.980Z,78.34
2023-04-10T07:25:43.458Z,77.84
2023-04-10T07:27:28.757Z,77.89
2023-04-10T07:29:23.291Z,77.54
2023-04-10T07:31:03.419Z,77.54
2023-04-10T07:32:49.573Z,78.35
2023-04-10T07:34:25.751Z,77.63
2023-04-10T07:36:10.625Z,76.79
2023-04-10T07:37:54.656Z,76.63
2023-04-10T07:39:33.481Z,76.43
2023-04-10T07:41:22.689Z,75.83
2023-04-10T07:42:53.827Z,75.16
2023-04-10T07:44:39.144Z,74.27
2023-04-10T07:46:08.146Z,74.93
2023-04-10T07:47:37.362Z,73.64
2023-04-10T07:49:13.673Z,73.51
2023-04-10T07:50:54.393Z,73.35
2023-04-10T07:52:49.275Z,73.35
2023-04-10T07:54:37.621Z,73.10
2023-04-10T07:56:13.042Z,72.86
2023-04-10T07:57:58.291Z,72.15
2023-04-10T07:59:34.058Z,72.23
2023-04-10T08:00:59.953Z,72.20
2023-04-10T08:02:44.824Z,72.20
2023-04-10T08:04:30.100Z,71.49
2023-04-10T08:06:01.328Z,71.66
2023-04-10T08:07:36.418Z,71.82
2023-04-10T08:09:05.330Z,71.14
2023-04-10T08:10:39.248Z,71.22
2023-04-10T08:12:21.736Z,71.24
2023-04-10T08:14:07.028Z,71.08
2023-04-10T08:15:33.974Z,71.16
2023-04-10T08:17:18.985Z,71.01
2023-04-10T08:19:04.419Z,71.24
2023-04-10T08:20:37.867Z,71.53
2023-04-10T08:22:21.433Z,71.61
2023-04-10T08:24:06.820Z,71.37
2023-04-10T08:25:48.014Z,71.49
2023-04-10T08:27:26.858Z,70.90
2023-04-10T08:28:50.146Z,70.55
2023-04-10T08:30:23.258Z,69.97
2023-04-10T08:32:08.049Z,70.17
2023-04-10T08:33:49.859Z,69.65
2023-04-10T08:35:25.653Z,69.53
2023-04-10T08:36:54.914Z,70.02
2023-04-10T08:38:28.383Z,70.04
2023-04-10T08:40:13.083Z,69.53
2023-04-10T08:41:48.834Z,70.15
2023-04-10T08:43:22.129Z,69.61
2023-04-10T08:44:52.195Z,68.75
2023-04-10T08:46:32.729Z,68.66
2023-04-10T08:48:13.223Z,68.32
2023-04-10T08:49:54.308Z,68.82
2023-04-10T08:51:39.743Z,68.03
2023-04-10T08:53:13.184Z,67.17
2023-04-10T08:54:58.314Z,67.50
2023-04-10T08:56:45.701Z,66.95
2023-04-10T08:58:27.084Z,66.98
2023-04-10T09:01:51.785Z,65.16
2023-04-10T09:03:23.672Z,65.16
2023-04-10T09:05:08.901Z,65.75
2023-04-10T09:06:51.143Z,66.84
2023-04-10T09:08:45.354Z,65.08
2023-04-10T09:10:30.310Z,64.52
2023-04-10T09:12:16.062Z,65.43
2023-04-10T09:14:01.296Z,65.55
2023-04-10T09:15:56.311Z,63.68
2023-04-10T09:17:29.843Z,64.49
2023-04-10T09:19:10.800Z,64.54
2023-04-10T09:20:46.780Z,63.04
2023-04-10T09:22:20.665Z,63.15
2023-04-10T09:23:55.904Z,63.66
2023-04-10T09:25:42.112Z,65.11
2023-04-10T09:27:15.087Z,62.73
2023-04-10T09:28:51.112Z,62.56
2023-04-10T09:30:25.063Z,63.39
2023-04-10T09:31:58.557Z,63.87
2023-04-10T09:33:24.947Z,63.26
2023-04-10T09:34:59.348Z,61.95
2023-04-10T09:36:46.409Z,61.60
2023-04-10T09:38:28.093Z,61.60
2023-04-10T09:40:12.926Z,61.48
2023-04-10T09:41:58.077Z,62.25
2023-04-10T09:43:45.441Z,62.23
2023-04-10T09:45:35.233Z,63.05
2023-04-10T09:47:30.252Z,61.82
2023-04-10T09:48:53.924Z,60.92
2023-04-10T09:50:28.311Z,61.15
2023-04-10T09:52:13.649Z,60.62
2023-04-10T09:53:49.140Z,60.38
2023-04-10T09:55:29.900Z,60.40
2023-04-10T09:57:14.647Z,61.33
2023-04-10T09:59:00.055Z,60.79
2023-04-10T10:00:40.619Z,60.03
2023-04-10T10:02:26.022Z,59.28
2023-04-10T10:04:20.262Z,60.44
2023-04-10T10:06:05.189Z,59.72
2023-04-10T10:07:58.574Z,58.82
2023-04-10T10:09:35.247Z,59.36
2023-04-10T10:11:21.677Z,57.93
2023-04-10T10:12:54.926Z,58.64
2023-04-10T10:14:40.746Z,57.97
2023-04-10T10:16:17.539Z,57.74
2023-04-10T10:18:03.156Z,56.92
2023-04-10T10:19:53.944Z,56.65
2023-04-10T10:21:39.767Z,56.53
2023-04-10T10:23:15.463Z,54.81
2023-04-10T10:25:00.592Z,54.45
2023-04-10T10:26:43.221Z,53.37
2023-04-10T10:28:37.245Z,54.08
2023-04-10T10:30:28.033Z,54.92
2023-04-10T10:32:22.747Z,53.38
2023-04-10T10:34:08.243Z,53.41
2023-04-10T10:35:41.684Z,54.40
2023-04-10T10:37:36.268Z,54.21
2023-04-10T10:39:09.361Z,52.91
2023-04-10T10:40:50.420Z,53.16
2023-04-10T10:42:35.262Z,53.05
2023-04-10T10:44:08.453Z,53.94
2023-04-10T10:45:58.553Z,54.13
2023-04-10T10:47:34.198Z,53.40
2023-04-10T10:49:03.152Z,52.65
2023-04-10T10:50:53.513Z,53.30
2023-04-10T10:52:34.504Z,54.02
2023-04-10T10:54:19.341Z,53.80
2023-04-10T10:56:00.016Z,52.50
2023-04-10T10:57:45.132Z,51.94
2023-04-10T10:59:06.720Z,51.04
2023-04-10T11:00:54.338Z,48.90
2023-04-10T11:02:35.300Z,50.28
2023-04-10T11:04:20.853Z,49.70
2023-04-10T11:06:08.888Z,49.16
2023-04-10T11:08:02.361Z,48.79
2023-04-10T11:09:38.289Z,46.69
2023-04-10T11:11:23.502Z,46.63
2023-04-10T11:13:08.933Z,45.40
2023-04-10T11:15:03.244Z,46.26
2023-04-10T11:16:44.770Z,44.78
2023-04-10T11:18:32.973Z,45.81
2023-04-10T11:20:26.308Z,47.33
2023-04-10T11:21:48.434Z,46.62
2023-04-10T11:23:24.075Z,45.12
2023-04-10T11:25:11.888Z,45.29
2023-04-10T11:26:57.048Z,44.75
2023-04-10T11:28:42.044Z,44.35
2023-04-10T11:30:13.106Z,44.09
2023-04-10T11:31:58.340Z,43.19
2023-04-10T11:33:53.264Z,42.82
2023-04-10T11:35:47.405Z,42.03
2023-04-10T11:37:32.563Z,40.57
2023-04-10T11:39:26.264Z,41.51
2023-04-10T11:41:07.017Z,40.79
2023-04-10T11:42:54.821Z,40.42
2023-04-10T11:44:36.497Z,42.48
2023-04-10T11:46:17.183Z,42.12
2023-04-10T11:48:03.507Z,40.77
2023-04-10T11:49:36.936Z,39.72
2023-04-10T11:51:09.874Z,40.51
2023-04-10T11:54:38.980Z,39.11
2023-04-10T11:56:24.082Z,41.25
2023-04-10T11:57:48.092Z,41.34
2023-04-10T11:59:22.516Z,41.09
2023-04-10T12:00:46.841Z,41.35
2023-04-10T12:02:19.808Z,43.37
2023-04-10T12:03:55.493Z,43.71
2023-04-10T12:05:24.990Z,45.06
2023-04-10T12:07:09.771Z,44.75
2023-04-10T12:08:55.188Z,45.15
2023-04-10T12:10:43.517Z,46.59
2023-04-10T12:12:26.368Z,45.97
2023-04-10T12:14:14.337Z,44.66
2023-04-10T12:15:55.364Z,43.05
2023-04-10T12:17:36.142Z,42.09
2023-04-10T12:19:21.241Z,40.50
2023-04-10T12:21:06.123Z,39.70
2023-04-10T12:22:53.003Z,38.99
2023-04-10T12:24:28.733Z,38.82
2023-04-10T12:26:02.256Z,38.58
2023-04-10T12:27:47.823Z,38.70
2023-04-10T12:29:42.256Z,37.76
2023-04-10T12:31:27.373Z,37.72
2023-04-10T12:33:19.543Z,39.56
2023-04-10T12:35:04.322Z,38.42
2023-04-10T12:36:40.229Z,38.98
2023-04-10T12:38:25.338Z,37.89
2023-04-10T12:40:00.980Z,37.70
2023-04-10T12:41:46.256Z,39.02
2023-04-10T12:43:32.282Z,38.85
2023-04-10T12:45:26.252Z,39.41
2023-04-10T12:46:53.029Z,39.78
2023-04-10T12:48:26.540Z,40.82
2023-04-10T12:50:11.567Z,41.16
2023-04-10T12:51:48.201Z,41.29
2023-04-10T12:53:33.257Z,42.06
2023-04-10T12:55:06.315Z,42.97
2023-04-10T12:56:42.211Z,43.24
2023-04-10T12:58:30.030Z,43.24
2023-04-10T13:00:10.370Z,43.65
2023-04-10T13:02:00.318Z,43.66
2023-04-10T13:03:36.601Z,44.90
2023-04-10T13:05:31.270Z,43.83
2023-04-10T13:07:16.343Z,45.40
2023-04-10T13:09:00.988Z,46.03
2023-04-10T13:10:55.154Z,45.31
2023-04-10T13:12:48.636Z,45.90
2023-04-10T13:14:21.805Z,45.32
2023-04-10T13:15:55.607Z,45.73
2023-04-10T13:17:46.407Z,46.38
2023-04-10T13:19:31.232Z,46.72
2023-04-10T13:21:06.173Z,46.28
2023-04-10T13:23:01.262Z,46.11
2023-04-10T13:24:37.230Z,46.93
2023-04-10T13:26:03.452Z,47.10
2023-04-10T13:27:48.515Z,46.48
2023-04-10T13:29:31.263Z,45.26
2023-04-10T13:31:17.264Z,43.86
2023-04-10T13:32:50.929Z,43.51
2023-04-10T13:34:45.289Z,41.52
2023-04-10T13:36:08.797Z,40.48
2023-04-10T13:38:03.292Z,39.70
2023-04-10T13:39:58.307Z,38.72
2023-04-10T13:41:53.304Z,39.54
2023-04-10T13:43:34.073Z,40.65
2023-04-10T13:45:14.247Z,41.60
2023-04-10T13:46:59.259Z,42.12
2023-04-10T13:48:54.289Z,41.49
2023-04-10T13:50:39.445Z,41.28
2023-04-10T13:52:19.936Z,42.34
2023-04-10T13:54:04.806Z,43.44
2023-04-10T13:55:58.496Z,44.29
2023-04-10T13:57:32.271Z,45.00
2023-04-10T13:59:25.253Z,45.60
2023-04-10T14:01:10.774Z,45.89
2023-04-10T14:02:52.049Z,45.54
2023-04-10T14:04:32.598Z,44.46
2023-04-10T14:06:17.792Z,43.22
2023-04-10T14:08:03.499Z,42.72
2023-04-10T14:09:25.060Z,41.89
2023-04-10T14:10:58.096Z,40.76
2023-04-10T14:12:31.898Z,39.65
2023-04-10T14:14:12.329Z,39.31
2023-04-10T14:15:45.789Z,39.49
2023-04-10T14:17:09.508Z,38.68
2023-04-10T14:18:43.224Z,37.72
2023-04-10T14:20:16.352Z,37.12
2023-04-10T14:21:52.414Z,37.61
2023-04-10T14:23:29.904Z,36.83
2023-04-10T14:25:15.559Z,36.68
2023-04-10T14:27:00.618Z,36.18
2023-04-10T14:28:46.152Z,36.89
2023-04-10T14:30:30.839Z,35.62
2023-04-10T14:32:00.205Z,35.32
2023-04-10T14:33:46.973Z,35.69
2023-04-10T14:35:20.416Z,34.61
2023-04-10T14:37:06.268Z,34.95
2023-04-10T14:38:41.950Z,34.06
2023-04-10T14:40:08.331Z,34.19
2023-04-10T14:41:42.129Z,34.40
2023-04-10T14:43:22.359Z,34.33
2023-04-10T14:45:06.775Z,33.52
2023-04-10T14:47:01.316Z,33.47
2023-04-10T14:48:56.346Z,33.83
2023-04-10T14:50:38.265Z,34.39
2023-04-10T14:52:32.293Z,34.22
2023-04-10T14:54:06.298Z,34.31
2023-04-10T14:55:42.140Z,34.54
2023-04-10T14:57:15.765Z,34.60
2023-04-10T14:58:49.129Z,34.66
2023-04-10T15:00:34.289Z,34.17
2023-04-10T15:02:15.645Z,34.39
2023-04-10T15:03:57.711Z,34.49
2023-04-10T15:05:44.516Z,34.81
2023-04-10T15:07:39.295Z,34.90
2023-04-10T15:09:12.609Z,34.79
2023-04-10T15:10:58.809Z,34.42
2023-04-10T15:12:25.114Z,34.19
2023-04-10T15:13:59.982Z,34.25
2023-04-10T15:15:24.525Z,34.01
2023-04-10T15:16:57.591Z,34.06
2023-04-10T15:18:40.334Z,34.10
2023-04-10T15:20:09.497Z,34.40
2023-04-10T15:21:50.971Z,33.79
2023-04-10T15:23:26.831Z,33.87
2023-04-10T15:25:11.875Z,33.68
2023-04-10T15:26:41.755Z,34.14
2023-04-10T15:28:17.300Z,33.79
2023-04-10T15:29:41.512Z,33.60
2023-04-10T15:31:30.460Z,34.50
2023-04-10T15:33:04.043Z,33.85
2023-04-10T15:34:59.304Z,33.93
2023-04-10T15:36:32.995Z,34.60
2023-04-10T15:38:06.491Z,34.29
2023-04-10T15:39:53.304Z,35.42
2023-04-10T15:41:33.934Z,36.64
2023-04-10T15:43:14.569Z,37.35
2023-04-10T15:45:00.046Z,37.75
2023-04-10T15:46:44.248Z,37.64
2023-04-10T15:48:29.506Z,37.60
2023-04-10T15:50:14.110Z,38.45
2023-04-10T15:51:46.729Z,38.96
2023-04-10T15:53:35.750Z,39.50
2023-04-10T15:54:59.721Z,40.28
2023-04-10T15:56:54.220Z,40.33
2023-04-10T15:58:25.714Z,40.56
2023-04-10T15:59:49.756Z,40.80
2023-04-10T16:01:22.644Z,41.17
2023-04-10T16:02:45.185Z,41.94
2023-04-10T16:04:19.193Z,41.48
2023-04-10T16:06:04.544Z,41.25
2023-04-10T16:07:47.302Z,41.13
2023-04-10T16:09:40.955Z,42.26
2023-04-10T16:11:26.121Z,43.18
2023-04-10T16:13:04.128Z,43.95
2023-04-10T16:14:49.778Z,44.01
2023-04-10T16:16:44.318Z,44.75
2023-04-10T16:18:38.661Z,45.00
2023-04-10T16:20:19.342Z,45.26
2023-04-10T16:22:00.284Z,45.07
2023-04-10T16:23:48.546Z,45.34
2023-04-10T16:25:21.916Z,46.13
2023-04-10T16:27:08.341Z,46.66
2023-04-10T16:28:42.761Z,47.48
2023-04-10T16:30:15.856Z,48.21
2023-04-10T16:31:50.180Z,48.57
2023-04-10T16:33:35.443Z,49.43
2023-04-10T16:35:08.672Z,49.48
2023-04-10T16:36:44.270Z,49.76
2023-04-10T16:38:18.141Z,50.07
2023-04-10T16:39:40.610Z,49.94
2023-04-10T16:41:25.542Z,50.45
2023-04-10T16:43:02.065Z,50.72
2023-04-10T16:44:38.292Z,51.28
2023-04-10T16:46:11.709Z,51.07
2023-04-10T16:47:53.047Z,51.70
2023-04-10T16:49:28.132Z,52.25
2023-04-10T16:51:17.345Z,52.69
2023-04-10T16:52:58.965Z,52.87
2023-04-10T16:54:44.787Z,53.27
2023-04-10T16:56:37.217Z,53.46
2023-04-10T16:58:12.402Z,53.68
2023-04-10T17:00:02.306Z,53.98
2023-04-10T17:01:28.838Z,54.26
2023-04-10T17:03:04.485Z,54.70
2023-04-10T17:04:28.779Z,55.13
2023-04-10T17:06:13.731Z,55.18
2023-04-10T17:07:59.155Z,55.33
2023-04-10T17:11:40.714Z,55.91
2023-04-10T17:13:25.313Z,56.55
2023-04-10T17:15:10.071Z,56.62
2023-04-10T17:16:51.688Z,56.97
2023-04-10T17:18:25.142Z,57.43
2023-04-10T17:19:59.098Z,57.86
2023-04-10T17:21:33.478Z,58.37
2023-04-10T17:23:06.986Z,58.74
2023-04-10T17:24:40.766Z,58.88
2023-04-10T17:26:21.460Z,59.09
2023-04-10T17:28:07.025Z,59.37
2023-04-10T17:29:49.866Z,59.62
2023-04-10T17:31:23.288Z,59.90
2023-04-10T17:32:48.569Z,59.99
2023-04-10T17:34:29.568Z,60.41
2023-04-10T17:36:03.556Z,60.65
2023-04-10T17:37:40.139Z,60.73
2023-04-10T17:39:06.778Z,60.94
2023-04-10T17:40:43.040Z,61.19
2023-04-10T17:42:36.837Z,61.51
2023-04-10T17:44:10.497Z,61.93
2023-04-10T17:45:32.536Z,62.04
2023-04-10T17:47:07.825Z,62.15
2023-04-10T17:48:44.059Z,62.43
2023-04-10T17:50:38.323Z,62.68
2023-04-10T17:51:59.806Z,62.83
2023-04-10T17:53:24.605Z,63.05
2023-04-10T17:55:09.693Z,63.24
2023-04-10T17:56:45.667Z,63.43
2023-04-10T17:58:21.444Z,63.68
2023-04-10T17:59:45.928Z,63.78
2023-04-10T18:01:32.867Z,63.90
2023-04-10T18:03:18.015Z,64.17
2023-04-10T18:05:03.387Z,64.32
2023-04-10T18:06:59.357Z,64.64
2023-04-10T18:08:35.582Z,64.76
2023-04-10T18:10:11.046Z,64.48
2023-04-10T18:11:47.772Z,64.77
2023-04-10T18:13:11.848Z,64.89
2023-04-10T18:14:48.453Z,64.80
2023-04-10T18:16:34.029Z,65.39
2023-04-10T18:18:19.126Z,65.53
2023-04-10T18:20:04.416Z,65.45
2023-04-10T18:21:49.701Z,65.90
2023-04-10T18:23:25.028Z,65.95
2023-04-10T18:24:47.441Z,66.29
2023-04-10T18:26:21.364Z,66.18
2023-04-10T18:28:12.929Z,66.40
2023-04-10T18:29:48.611Z,66.62
2023-04-10T18:31:26.325Z,66.41
2023-04-10T18:33:08.416Z,66.63
2023-04-10T18:35:05.357Z,67.09
2023-04-10T18:36:50.657Z,66.90
2023-04-10T18:38:24.420Z,66.88
2023-04-10T18:39:55.466Z,66.98
2023-04-10T18:41:42.427Z,67.15
2023-04-10T18:43:27.836Z,67.06
2023-04-10T18:45:12.884Z,67.04
2023-04-10T18:47:03.780Z,67.17
2023-04-10T18:48:56.349Z,67.45
2023-04-10T18:50:32.567Z,67.18
2023-04-10T18:51:55.044Z,67.45
2023-04-10T18:53:49.286Z,67.35
2023-04-10T18:55:26.316Z,67.13
2023-04-10T18:57:11.659Z,67.49
2023-04-10T18:58:54.503Z,67.71
2023-04-10T19:00:49.334Z,67.50
2023-04-10T19:02:25.993Z,67.65
2023-04-10T19:04:20.422Z,67.49
2023-04-10T19:05:57.226Z,67.82
2023-04-10T19:07:49.781Z,68.07
2023-04-10T19:09:23.439Z,67.87
2023-04-10T19:10:47.740Z,68.27
2023-04-10T19:12:40.008Z,68.61
2023-04-10T19:14:13.960Z,68.26
2023-04-10T19:15:48.076Z,67.66
2023-04-10T19:17:25.171Z,67.45
2023-04-10T19:19:10.287Z,67.87
2023-04-10T19:20:50.700Z,67.20
2023-04-10T19:22:47.361Z,67.09
2023-04-10T19:24:28.406Z,67.09
2023-04-10T19:26:02.036Z,66.97
2023-04-10T19:27:36.104Z,67.20
2023-04-10T19:29:24.688Z,67.37
2023-04-10T19:30:49.650Z,66.48
2023-04-10T19:32:23.381Z,66.41
2023-04-10T19:34:04.497Z,66.50
2023-04-10T19:35:41.050Z,66.51
2023-04-10T19:37:18.020Z,66.39
2023-04-10T19:38:55.126Z,66.30
2023-04-10T19:40:19.713Z,66.48
2023-04-10T19:42:04.821Z,66.38
2023-04-10T19:43:40.809Z,65.83
2023-04-10T19:58:17.043Z,65.92
2023-04-10T19:59:59.248Z,65.91
2023-04-10T20:01:33.975Z,65.69
2023-04-10T20:03:01.843Z,65.99
2023-04-10T20:04:22.633Z,66.01
2023-04-10T20:05:55.060Z,66.40
2023-04-10T20:07:27.268Z,66.46
2023-04-10T20:09:08.010Z,66.05
2023-04-10T20:10:30.654Z,66.21
2023-04-10T20:11:51.106Z,66.18
2023-04-10T20:13:22.637Z,66.26
2023-04-10T20:14:46.015Z,66.44
2023-04-10T20:16:37.426Z,66.14
2023-04-10T20:18:11.673Z,66.82
2023-04-10T20:19:46.379Z,66.61
2023-04-10T20:21:20.816Z,66.73
2023-04-10T20:22:43.773Z,67.30
2023-04-10T20:24:22.985Z,67.39
2023-04-10T20:25:54.823Z,67.23
2023-04-10T20:27:26.811Z,67.49
2023-04-10T20:28:59.712Z,68.15
2023-04-10T20:30:43.249Z,68.28
2023-04-10T20:32:14.818Z,68.33
2023-04-10T20:33:42.547Z,68.34
2023-04-10T20:35:04.534Z,68.44
2023-04-10T20:36:35.293Z,68.84
2023-04-10T20:38:09.588Z,69.32
2023-04-10T20:39:44.360Z,69.51
2023-04-10T20:41:37.184Z,69.86
2023-04-10T20:43:22.209Z,69.47
2023-04-10T20:44:54.755Z,69.87
2023-04-10T20:46:26.840Z,69.47
2023-04-10T20:47:59.035Z,69.72
2023-04-10T20:49:31.136Z,69.31
2023-04-10T20:51:05.267Z,69.32
2023-04-10T20:52:52.445Z,69.41
2023-04-10T20:54:22.561Z,69.23
2023-04-10T20:56:06.168Z,69.17
2023-04-10T20:57:38.517Z,69.83
2023-04-10T20:59:13.079Z,69.46
2023-04-10T21:00:55.302Z,69.33
2023-04-10T21:02:39.430Z,69.57
2023-04-10T21:04:28.038Z,69.46
2023-04-10T21:06:11.882Z,69.08
2023-04-10T21:07:45.196Z,69.22
2023-04-10T21:09:07.531Z,69.26
2023-04-10T21:10:39.495Z,69.27
2023-04-10T21:11:59.491Z,69.57
2023-04-10T21:13:35.077Z,69.13
2023-04-10T21:14:58.495Z,69.03
2023-04-10T21:16:38.737Z,68.99
2023-04-10T21:18:31.240Z,69.02
2023-04-10T21:20:14.606Z,68.57
2023-04-10T21:21:49.952Z,68.67
2023-04-10T21:23:33.627Z,68.44
2023-04-10T21:25:01.269Z,68.43
2023-04-10T21:26:53.539Z,68.63
2023-04-10T21:28:25.852Z,69.09
2023-04-10T21:29:46.521Z,68.93
2023-04-10T21:31:26.224Z,68.91
2023-04-10T21:32:48.937Z,69.11
2023-04-10T21:34:32.371Z,69.23
2023-04-10T21:36:07.245Z,69.57
2023-04-10T21:37:30.354Z,69.45
2023-04-10T21:39:13.686Z,69.54
2023-04-10T21:40:41.597Z,69.86
2023-04-10T21:42:09.450Z,69.96
2023-04-10T21:43:50.289Z,70.30
2023-04-10T21:45:34.049Z,70.08
2023-04-10T21:47:16.532Z,69.97
2023-04-10T21:48:56.649Z,69.85
2023-04-10T21:50:29.191Z,70.17
2023-04-10T21:52:01.028Z,70.30
2023-04-10T21:53:31.634Z,70.08
2023-04-10T21:55:06.459Z,70.42
2023-04-10T21:56:36.154Z,70.37
2023-04-10T21:58:09.137Z,70.18
2023-04-10T21:59:32.923Z,70.34
2023-04-10T22:00:53.719Z,70.56
2023-04-10T22:02:21.747Z,70.69
2023-04-10T22:03:45.640Z,70.64
2023-04-10T22:05:05.837Z,70.87
2023-04-10T22:06:26.059Z,71.04
2023-04-10T22:07:46.946Z,71.11